sensor_id;sensor_type;location;lat;lon;timestamp;P1;durP1;ratioP1;P2;durP2;ratioP2
12519;SDS011;6325;49.540;8.364;2024-01-25T00:01:53;15.35;;;7.35;;
12519;SDS011;6325;49.540;8.364;2024-01-25T00:04:20;19.23;;;8.70;;
12519;SDS011;6325;49.540;8.364;2024-01-25T00:06:50;21.23;;;9.38;;
12519;SDS011;6325;49.540;8.364;2024-01-25T00:09:17;17.60;;;8.60;;
12519;SDS011;6325;49.540;8.364;2024-01-25T00:11:43;17.13;;;8.45;;
12519;SDS011;6325;49.540;8.364;2024-01-25T00:14:10;18.85;;;9.35;;
12519;SDS011;6325;49.540;8.364;2024-01-25T00:16:40;21.50;;;9.48;;
12519;SDS011;6325;49.540;8.364;2024-01-25T00:19:07;17.35;;;8.32;;
12519;SDS011;6325;49.540;8.364;2024-01-25T00:21:34;16.63;;;8.18;;
12519;SDS011;6325;49.540;8.364;2024-01-25T00:24:03;17.63;;;8.20;;
12519;SDS011;6325;49.540;8.364;2024-01-25T00:26:30;17.20;;;8.05;;
12519;SDS011;6325;49.540;8.364;2024-01-25T00:28:56;18.10;;;8.20;;
12519;SDS011;6325;49.540;8.364;2024-01-25T00:31:23;15.82;;;8.02;;
12519;SDS011;6325;49.540;8.364;2024-01-25T00:33:50;20.83;;;8.77;;
12519;SDS011;6325;49.540;8.364;2024-01-25T00:36:17;18.10;;;7.83;;
12519;SDS011;6325;49.540;8.364;2024-01-25T00:38:45;15.43;;;7.10;;
12519;SDS011;6325;49.540;8.364;2024-01-25T00:41:14;15.93;;;7.43;;
12519;SDS011;6325;49.540;8.364;2024-01-25T00:43:45;16.33;;;7.35;;
12519;SDS011;6325;49.540;8.364;2024-01-25T00:46:13;20.23;;;9.70;;
12519;SDS011;6325;49.540;8.364;2024-01-25T00:48:41;18.08;;;8.45;;
12519;SDS011;6325;49.540;8.364;2024-01-25T00:51:09;18.67;;;8.55;;
12519;SDS011;6325;49.540;8.364;2024-01-25T00:53:40;16.92;;;8.20;;
12519;SDS011;6325;49.540;8.364;2024-01-25T00:56:08;16.43;;;7.50;;
12519;SDS011;6325;49.540;8.364;2024-01-25T00:58:38;15.43;;;7.32;;
12519;SDS011;6325;49.540;8.364;2024-01-25T01:01:06;15.43;;;7.80;;
12519;SDS011;6325;49.540;8.364;2024-01-25T01:03:35;18.20;;;8.20;;
12519;SDS011;6325;49.540;8.364;2024-01-25T01:06:02;13.85;;;6.38;;
12519;SDS011;6325;49.540;8.364;2024-01-25T01:08:30;8.85;;;4.55;;
12519;SDS011;6325;49.540;8.364;2024-01-25T01:10:57;9.50;;;4.05;;
12519;SDS011;6325;49.540;8.364;2024-01-25T01:13:24;8.77;;;3.40;;
12519;SDS011;6325;49.540;8.364;2024-01-25T01:15:52;10.43;;;4.05;;
12519;SDS011;6325;49.540;8.364;2024-01-25T01:18:19;7.95;;;3.17;;
12519;SDS011;6325;49.540;8.364;2024-01-25T01:20:47;8.88;;;3.65;;
12519;SDS011;6325;49.540;8.364;2024-01-25T01:23:14;6.88;;;3.00;;
12519;SDS011;6325;49.540;8.364;2024-01-25T01:25:41;7.27;;;2.97;;
12519;SDS011;6325;49.540;8.364;2024-01-25T01:28:08;6.05;;;2.90;;
12519;SDS011;6325;49.540;8.364;2024-01-25T01:30:34;11.82;;;4.68;;
12519;SDS011;6325;49.540;8.364;2024-01-25T01:33:03;7.65;;;3.50;;
12519;SDS011;6325;49.540;8.364;2024-01-25T01:35:30;7.47;;;3.90;;
12519;SDS011;6325;49.540;8.364;2024-01-25T01:37:57;9.63;;;4.25;;
12519;SDS011;6325;49.540;8.364;2024-01-25T01:40:24;14.03;;;5.90;;
12519;SDS011;6325;49.540;8.364;2024-01-25T01:42:51;15.57;;;7.10;;
12519;SDS011;6325;49.540;8.364;2024-01-25T01:45:27;20.33;;;8.40;;
12519;SDS011;6325;49.540;8.364;2024-01-25T01:47:54;13.17;;;6.30;;
12519;SDS011;6325;49.540;8.364;2024-01-25T01:50:23;13.70;;;6.83;;
12519;SDS011;6325;49.540;8.364;2024-01-25T01:52:51;16.30;;;8.00;;
12519;SDS011;6325;49.540;8.364;2024-01-25T01:55:22;16.40;;;7.47;;
12519;SDS011;6325;49.540;8.364;2024-01-25T01:57:49;18.77;;;8.30;;
12519;SDS011;6325;49.540;8.364;2024-01-25T02:00:16;18.38;;;8.45;;
12519;SDS011;6325;49.540;8.364;2024-01-25T02:02:44;18.63;;;8.65;;
12519;SDS011;6325;49.540;8.364;2024-01-25T02:05:11;19.97;;;8.50;;
12519;SDS011;6325;49.540;8.364;2024-01-25T02:07:39;21.70;;;9.13;;
12519;SDS011;6325;49.540;8.364;2024-01-25T02:10:07;24.02;;;10.32;;
12519;SDS011;6325;49.540;8.364;2024-01-25T02:12:34;18.50;;;8.30;;
12519;SDS011;6325;49.540;8.364;2024-01-25T02:15:01;19.10;;;8.25;;
12519;SDS011;6325;49.540;8.364;2024-01-25T02:17:29;18.20;;;8.00;;
12519;SDS011;6325;49.540;8.364;2024-01-25T02:19:56;18.30;;;8.02;;
12519;SDS011;6325;49.540;8.364;2024-01-25T02:22:24;18.83;;;8.55;;
12519;SDS011;6325;49.540;8.364;2024-01-25T02:24:51;18.02;;;8.55;;
12519;SDS011;6325;49.540;8.364;2024-01-25T02:27:18;16.63;;;7.63;;
12519;SDS011;6325;49.540;8.364;2024-01-25T02:29:45;26.35;;;11.70;;
12519;SDS011;6325;49.540;8.364;2024-01-25T02:32:12;17.75;;;8.57;;
12519;SDS011;6325;49.540;8.364;2024-01-25T02:34:39;17.17;;;8.70;;
12519;SDS011;6325;49.540;8.364;2024-01-25T02:37:06;18.23;;;8.50;;
12519;SDS011;6325;49.540;8.364;2024-01-25T02:39:35;19.85;;;8.80;;
12519;SDS011;6325;49.540;8.364;2024-01-25T02:42:02;22.25;;;8.82;;
12519;SDS011;6325;49.540;8.364;2024-01-25T02:44:30;18.02;;;8.07;;
12519;SDS011;6325;49.540;8.364;2024-01-25T02:46:57;18.20;;;7.57;;
12519;SDS011;6325;49.540;8.364;2024-01-25T02:49:23;17.15;;;7.90;;
12519;SDS011;6325;49.540;8.364;2024-01-25T02:51:51;22.38;;;10.10;;
12519;SDS011;6325;49.540;8.364;2024-01-25T02:54:18;15.05;;;7.07;;
12519;SDS011;6325;49.540;8.364;2024-01-25T02:56:46;15.15;;;7.07;;
12519;SDS011;6325;49.540;8.364;2024-01-25T02:59:13;17.52;;;8.40;;
12519;SDS011;6325;49.540;8.364;2024-01-25T03:01:40;18.83;;;8.80;;
12519;SDS011;6325;49.540;8.364;2024-01-25T03:04:07;17.67;;;8.05;;
12519;SDS011;6325;49.540;8.364;2024-01-25T03:06:37;17.42;;;7.60;;
12519;SDS011;6325;49.540;8.364;2024-01-25T03:09:12;14.98;;;6.80;;
12519;SDS011;6325;49.540;8.364;2024-01-25T03:11:47;12.13;;;5.90;;
12519;SDS011;6325;49.540;8.364;2024-01-25T03:14:20;12.98;;;5.55;;
12519;SDS011;6325;49.540;8.364;2024-01-25T03:16:56;12.55;;;5.60;;
12519;SDS011;6325;49.540;8.364;2024-01-25T03:19:29;12.30;;;5.93;;
12519;SDS011;6325;49.540;8.364;2024-01-25T03:22:11;17.20;;;7.28;;
12519;SDS011;6325;49.540;8.364;2024-01-25T03:24:50;16.63;;;7.22;;
12519;SDS011;6325;49.540;8.364;2024-01-25T03:27:43;13.38;;;6.07;;
12519;SDS011;6325;49.540;8.364;2024-01-25T03:30:32;12.03;;;5.50;;
12519;SDS011;6325;49.540;8.364;2024-01-25T03:33:10;12.00;;;5.90;;
12519;SDS011;6325;49.540;8.364;2024-01-25T03:35:54;11.40;;;5.78;;
12519;SDS011;6325;49.540;8.364;2024-01-25T03:38:27;10.20;;;3.80;;
12519;SDS011;6325;49.540;8.364;2024-01-25T03:41:02;6.00;;;3.05;;
12519;SDS011;6325;49.540;8.364;2024-01-25T03:43:42;7.00;;;2.95;;
12519;SDS011;6325;49.540;8.364;2024-01-25T03:46:20;6.38;;;3.10;;
12519;SDS011;6325;49.540;8.364;2024-01-25T03:48:55;4.78;;;2.72;;
12519;SDS011;6325;49.540;8.364;2024-01-25T03:51:41;7.28;;;2.78;;
12519;SDS011;6325;49.540;8.364;2024-01-25T03:54:20;7.40;;;2.95;;
12519;SDS011;6325;49.540;8.364;2024-01-25T03:57:03;5.93;;;2.80;;
12519;SDS011;6325;49.540;8.364;2024-01-25T03:59:46;4.43;;;2.30;;
12519;SDS011;6325;49.540;8.364;2024-01-25T04:02:25;8.65;;;2.90;;
12519;SDS011;6325;49.540;8.364;2024-01-25T04:04:58;7.80;;;3.20;;
12519;SDS011;6325;49.540;8.364;2024-01-25T04:07:30;6.05;;;2.88;;
12519;SDS011;6325;49.540;8.364;2024-01-25T04:10:08;7.38;;;3.20;;
12519;SDS011;6325;49.540;8.364;2024-01-25T04:12:39;6.75;;;2.92;;
12519;SDS011;6325;49.540;8.364;2024-01-25T04:15:23;6.70;;;2.95;;
12519;SDS011;6325;49.540;8.364;2024-01-25T04:18:00;7.45;;;3.30;;
12519;SDS011;6325;49.540;8.364;2024-01-25T04:20:32;7.40;;;3.75;;
12519;SDS011;6325;49.540;8.364;2024-01-25T04:23:21;10.50;;;4.35;;
12519;SDS011;6325;49.540;8.364;2024-01-25T04:25:54;11.48;;;4.82;;
12519;SDS011;6325;49.540;8.364;2024-01-25T04:28:29;11.65;;;5.22;;
12519;SDS011;6325;49.540;8.364;2024-01-25T04:31:08;11.23;;;5.20;;
12519;SDS011;6325;49.540;8.364;2024-01-25T04:33:48;6.45;;;3.33;;
12519;SDS011;6325;49.540;8.364;2024-01-25T04:36:23;8.15;;;3.42;;
12519;SDS011;6325;49.540;8.364;2024-01-25T04:38:57;7.65;;;3.15;;
12519;SDS011;6325;49.540;8.364;2024-01-25T04:41:27;8.55;;;3.25;;
12519;SDS011;6325;49.540;8.364;2024-01-25T04:44:00;8.52;;;3.72;;
12519;SDS011;6325;49.540;8.364;2024-01-25T04:49:19;7.63;;;2.97;;
12519;SDS011;6325;49.540;8.364;2024-01-25T04:51:54;9.75;;;3.42;;
12519;SDS011;6325;49.540;8.364;2024-01-25T04:54:36;7.93;;;3.07;;
12519;SDS011;6325;49.540;8.364;2024-01-25T04:57:08;7.95;;;2.65;;
12519;SDS011;6325;49.540;8.364;2024-01-25T04:59:45;7.35;;;2.85;;
12519;SDS011;6325;49.540;8.364;2024-01-25T05:02:32;8.05;;;3.17;;
12519;SDS011;6325;49.540;8.364;2024-01-25T05:05:16;5.68;;;2.17;;
12519;SDS011;6325;49.540;8.364;2024-01-25T05:07:57;7.78;;;2.85;;
12519;SDS011;6325;49.540;8.364;2024-01-25T05:10:34;7.60;;;2.55;;
12519;SDS011;6325;49.540;8.364;2024-01-25T05:13:09;9.75;;;3.80;;
12519;SDS011;6325;49.540;8.364;2024-01-25T05:15:59;11.55;;;4.72;;
12519;SDS011;6325;49.540;8.364;2024-01-25T05:18:42;13.38;;;5.30;;
12519;SDS011;6325;49.540;8.364;2024-01-25T05:21:16;11.95;;;5.40;;
12519;SDS011;6325;49.540;8.364;2024-01-25T05:23:46;13.00;;;5.43;;
12519;SDS011;6325;49.540;8.364;2024-01-25T05:26:18;13.07;;;5.68;;
12519;SDS011;6325;49.540;8.364;2024-01-25T05:28:55;15.73;;;5.80;;
12519;SDS011;6325;49.540;8.364;2024-01-25T05:31:42;10.43;;;4.75;;
12519;SDS011;6325;49.540;8.364;2024-01-25T05:34:26;10.02;;;4.70;;
12519;SDS011;6325;49.540;8.364;2024-01-25T05:37:04;8.98;;;4.72;;
12519;SDS011;6325;49.540;8.364;2024-01-25T05:39:43;11.00;;;5.20;;
12519;SDS011;6325;49.540;8.364;2024-01-25T05:42:15;12.35;;;5.55;;
12519;SDS011;6325;49.540;8.364;2024-01-25T05:44:51;21.98;;;10.63;;
12519;SDS011;6325;49.540;8.364;2024-01-25T05:47:24;14.32;;;6.55;;
12519;SDS011;6325;49.540;8.364;2024-01-25T05:50:08;9.40;;;4.32;;
12519;SDS011;6325;49.540;8.364;2024-01-25T05:52:43;9.35;;;3.88;;
12519;SDS011;6325;49.540;8.364;2024-01-25T05:55:30;6.43;;;3.03;;
12519;SDS011;6325;49.540;8.364;2024-01-25T05:58:03;8.85;;;3.25;;
12519;SDS011;6325;49.540;8.364;2024-01-25T06:00:38;6.70;;;3.03;;
12519;SDS011;6325;49.540;8.364;2024-01-25T06:03:18;5.32;;;2.92;;
12519;SDS011;6325;49.540;8.364;2024-01-25T06:06:06;6.50;;;2.90;;
12519;SDS011;6325;49.540;8.364;2024-01-25T06:08:40;7.28;;;3.17;;
12519;SDS011;6325;49.540;8.364;2024-01-25T06:11:28;11.43;;;4.70;;
12519;SDS011;6325;49.540;8.364;2024-01-25T06:14:06;11.10;;;4.90;;
12519;SDS011;6325;49.540;8.364;2024-01-25T06:16:41;8.75;;;4.40;;
12519;SDS011;6325;49.540;8.364;2024-01-25T06:19:20;12.20;;;5.03;;
12519;SDS011;6325;49.540;8.364;2024-01-25T06:22:00;15.63;;;6.45;;
12519;SDS011;6325;49.540;8.364;2024-01-25T06:24:38;14.25;;;6.50;;
12519;SDS011;6325;49.540;8.364;2024-01-25T06:27:04;11.65;;;4.93;;
12519;SDS011;6325;49.540;8.364;2024-01-25T06:29:33;10.90;;;4.55;;
12519;SDS011;6325;49.540;8.364;2024-01-25T06:32:07;7.90;;;3.25;;
12519;SDS011;6325;49.540;8.364;2024-01-25T06:34:46;10.52;;;3.85;;
12519;SDS011;6325;49.540;8.364;2024-01-25T06:37:24;6.53;;;3.20;;
12519;SDS011;6325;49.540;8.364;2024-01-25T06:39:55;10.65;;;3.50;;
12519;SDS011;6325;49.540;8.364;2024-01-25T06:42:28;8.90;;;3.53;;
12519;SDS011;6325;49.540;8.364;2024-01-25T06:45:02;9.13;;;3.60;;
12519;SDS011;6325;49.540;8.364;2024-01-25T06:47:40;8.80;;;3.20;;
12519;SDS011;6325;49.540;8.364;2024-01-25T06:50:12;7.13;;;3.00;;
12519;SDS011;6325;49.540;8.364;2024-01-25T06:52:45;8.55;;;3.17;;
12519;SDS011;6325;49.540;8.364;2024-01-25T06:55:13;6.80;;;3.00;;
12519;SDS011;6325;49.540;8.364;2024-01-25T06:57:42;7.80;;;3.10;;
12519;SDS011;6325;49.540;8.364;2024-01-25T07:00:11;6.53;;;2.85;;
12519;SDS011;6325;49.540;8.364;2024-01-25T07:02:51;6.38;;;2.90;;
12519;SDS011;6325;49.540;8.364;2024-01-25T07:05:26;6.78;;;3.28;;
12519;SDS011;6325;49.540;8.364;2024-01-25T07:08:14;9.10;;;4.23;;
12519;SDS011;6325;49.540;8.364;2024-01-25T07:13:37;15.05;;;6.68;;
12519;SDS011;6325;49.540;8.364;2024-01-25T07:16:10;14.27;;;6.57;;
12519;SDS011;6325;49.540;8.364;2024-01-25T07:18:39;14.00;;;6.78;;
12519;SDS011;6325;49.540;8.364;2024-01-25T07:21:06;13.57;;;6.35;;
12519;SDS011;6325;49.540;8.364;2024-01-25T07:23:34;10.55;;;5.35;;
12519;SDS011;6325;49.540;8.364;2024-01-25T07:26:01;9.93;;;4.63;;
12519;SDS011;6325;49.540;8.364;2024-01-25T07:28:27;6.97;;;4.07;;
12519;SDS011;6325;49.540;8.364;2024-01-25T07:30:54;7.47;;;3.53;;
12519;SDS011;6325;49.540;8.364;2024-01-25T07:33:21;8.20;;;3.92;;
12519;SDS011;6325;49.540;8.364;2024-01-25T07:35:47;8.75;;;4.40;;
12519;SDS011;6325;49.540;8.364;2024-01-25T07:38:14;7.13;;;3.97;;
12519;SDS011;6325;49.540;8.364;2024-01-25T07:40:43;8.95;;;4.20;;
12519;SDS011;6325;49.540;8.364;2024-01-25T07:43:10;8.30;;;3.85;;
12519;SDS011;6325;49.540;8.364;2024-01-25T07:45:36;9.80;;;4.45;;
12519;SDS011;6325;49.540;8.364;2024-01-25T07:48:05;9.05;;;4.10;;
12519;SDS011;6325;49.540;8.364;2024-01-25T07:50:32;10.35;;;4.32;;
12519;SDS011;6325;49.540;8.364;2024-01-25T07:52:59;7.47;;;3.47;;
12519;SDS011;6325;49.540;8.364;2024-01-25T07:55:27;6.75;;;3.20;;
12519;SDS011;6325;49.540;8.364;2024-01-25T07:57:56;6.55;;;3.20;;
12519;SDS011;6325;49.540;8.364;2024-01-25T08:00:22;6.57;;;3.17;;
12519;SDS011;6325;49.540;8.364;2024-01-25T08:02:49;6.03;;;3.15;;
12519;SDS011;6325;49.540;8.364;2024-01-25T08:05:16;7.38;;;3.25;;
12519;SDS011;6325;49.540;8.364;2024-01-25T08:07:44;9.65;;;4.30;;
12519;SDS011;6325;49.540;8.364;2024-01-25T08:10:11;11.20;;;5.13;;
12519;SDS011;6325;49.540;8.364;2024-01-25T08:12:38;13.23;;;6.60;;
12519;SDS011;6325;49.540;8.364;2024-01-25T08:15:08;15.82;;;7.15;;
12519;SDS011;6325;49.540;8.364;2024-01-25T08:17:36;19.97;;;8.30;;
12519;SDS011;6325;49.540;8.364;2024-01-25T08:20:03;18.42;;;8.13;;
12519;SDS011;6325;49.540;8.364;2024-01-25T08:22:31;17.48;;;7.60;;
12519;SDS011;6325;49.540;8.364;2024-01-25T08:24:58;17.00;;;7.63;;
12519;SDS011;6325;49.540;8.364;2024-01-25T08:27:25;14.80;;;7.00;;
12519;SDS011;6325;49.540;8.364;2024-01-25T08:29:51;15.48;;;6.70;;
12519;SDS011;6325;49.540;8.364;2024-01-25T08:32:19;13.45;;;5.90;;
12519;SDS011;6325;49.540;8.364;2024-01-25T08:34:46;9.93;;;4.55;;
12519;SDS011;6325;49.540;8.364;2024-01-25T08:37:13;12.13;;;5.40;;
12519;SDS011;6325;49.540;8.364;2024-01-25T08:39:40;13.65;;;6.00;;
12519;SDS011;6325;49.540;8.364;2024-01-25T08:42:08;13.05;;;5.80;;
12519;SDS011;6325;49.540;8.364;2024-01-25T08:44:35;10.65;;;5.07;;
12519;SDS011;6325;49.540;8.364;2024-01-25T08:47:04;9.02;;;4.10;;
12519;SDS011;6325;49.540;8.364;2024-01-25T08:49:37;9.82;;;4.22;;
12519;SDS011;6325;49.540;8.364;2024-01-25T08:52:04;8.18;;;3.70;;
12519;SDS011;6325;49.540;8.364;2024-01-25T08:54:31;6.35;;;3.25;;
12519;SDS011;6325;49.540;8.364;2024-01-25T08:56:59;7.07;;;3.63;;
12519;SDS011;6325;49.540;8.364;2024-01-25T08:59:25;6.75;;;3.47;;
12519;SDS011;6325;49.540;8.364;2024-01-25T09:01:54;7.00;;;3.40;;
12519;SDS011;6325;49.540;8.364;2024-01-25T09:04:21;7.28;;;3.97;;
12519;SDS011;6325;49.540;8.364;2024-01-25T09:06:49;7.18;;;3.75;;
12519;SDS011;6325;49.540;8.364;2024-01-25T09:09:16;7.93;;;3.83;;
12519;SDS011;6325;49.540;8.364;2024-01-25T09:11:42;7.47;;;3.83;;
12519;SDS011;6325;49.540;8.364;2024-01-25T09:14:09;10.80;;;4.93;;
12519;SDS011;6325;49.540;8.364;2024-01-25T09:16:36;9.13;;;4.60;;
12519;SDS011;6325;49.540;8.364;2024-01-25T09:19:03;10.45;;;4.57;;
12519;SDS011;6325;49.540;8.364;2024-01-25T09:21:30;9.23;;;4.35;;
12519;SDS011;6325;49.540;8.364;2024-01-25T09:23:58;8.43;;;4.25;;
12519;SDS011;6325;49.540;8.364;2024-01-25T09:26:26;8.45;;;3.67;;
12519;SDS011;6325;49.540;8.364;2024-01-25T09:28:53;11.45;;;4.78;;
12519;SDS011;6325;49.540;8.364;2024-01-25T09:31:19;10.05;;;4.25;;
12519;SDS011;6325;49.540;8.364;2024-01-25T09:33:46;10.00;;;4.57;;
12519;SDS011;6325;49.540;8.364;2024-01-25T09:36:13;11.05;;;4.57;;
12519;SDS011;6325;49.540;8.364;2024-01-25T09:38:40;11.65;;;4.47;;
12519;SDS011;6325;49.540;8.364;2024-01-25T09:41:08;9.05;;;3.20;;
12519;SDS011;6325;49.540;8.364;2024-01-25T09:43:35;8.13;;;3.50;;
12519;SDS011;6325;49.540;8.364;2024-01-25T09:46:02;7.40;;;3.22;;
12519;SDS011;6325;49.540;8.364;2024-01-25T09:48:32;8.77;;;3.35;;
12519;SDS011;6325;49.540;8.364;2024-01-25T09:50:58;8.73;;;3.78;;
12519;SDS011;6325;49.540;8.364;2024-01-25T09:53:25;9.63;;;3.67;;
12519;SDS011;6325;49.540;8.364;2024-01-25T09:55:55;10.85;;;4.65;;
12519;SDS011;6325;49.540;8.364;2024-01-25T09:58:34;11.68;;;4.82;;
12519;SDS011;6325;49.540;8.364;2024-01-25T10:01:05;14.18;;;5.55;;
12519;SDS011;6325;49.540;8.364;2024-01-25T10:03:35;12.00;;;4.97;;
12519;SDS011;6325;49.540;8.364;2024-01-25T10:06:01;8.55;;;4.13;;
12519;SDS011;6325;49.540;8.364;2024-01-25T10:08:29;9.25;;;4.30;;
12519;SDS011;6325;49.540;8.364;2024-01-25T10:10:56;8.25;;;3.58;;
12519;SDS011;6325;49.540;8.364;2024-01-25T10:13:22;10.10;;;4.90;;
12519;SDS011;6325;49.540;8.364;2024-01-25T10:15:50;13.98;;;6.40;;
12519;SDS011;6325;49.540;8.364;2024-01-25T10:18:17;13.50;;;5.85;;
12519;SDS011;6325;49.540;8.364;2024-01-25T10:20:44;9.55;;;4.32;;
12519;SDS011;6325;49.540;8.364;2024-01-25T10:23:11;10.20;;;4.50;;
12519;SDS011;6325;49.540;8.364;2024-01-25T10:25:37;10.57;;;4.45;;
12519;SDS011;6325;49.540;8.364;2024-01-25T10:28:05;12.95;;;5.18;;
12519;SDS011;6325;49.540;8.364;2024-01-25T10:30:33;11.88;;;4.68;;
12519;SDS011;6325;49.540;8.364;2024-01-25T10:33:02;15.43;;;5.90;;
12519;SDS011;6325;49.540;8.364;2024-01-25T10:35:30;8.75;;;3.67;;
12519;SDS011;6325;49.540;8.364;2024-01-25T10:37:57;14.70;;;5.72;;
12519;SDS011;6325;49.540;8.364;2024-01-25T10:40:25;13.85;;;5.70;;
12519;SDS011;6325;49.540;8.364;2024-01-25T10:42:53;13.10;;;5.10;;
12519;SDS011;6325;49.540;8.364;2024-01-25T10:45:19;9.23;;;3.95;;
12519;SDS011;6325;49.540;8.364;2024-01-25T10:47:48;11.55;;;5.30;;
12519;SDS011;6325;49.540;8.364;2024-01-25T10:50:16;7.45;;;3.58;;
12519;SDS011;6325;49.540;8.364;2024-01-25T10:52:43;8.90;;;4.00;;
12519;SDS011;6325;49.540;8.364;2024-01-25T10:55:11;8.65;;;4.10;;
12519;SDS011;6325;49.540;8.364;2024-01-25T10:57:39;6.75;;;3.40;;
12519;SDS011;6325;49.540;8.364;2024-01-25T11:00:09;7.35;;;3.40;;
12519;SDS011;6325;49.540;8.364;2024-01-25T11:02:37;7.43;;;3.25;;
12519;SDS011;6325;49.540;8.364;2024-01-25T11:05:06;8.15;;;3.15;;
12519;SDS011;6325;49.540;8.364;2024-01-25T11:07:41;5.63;;;2.50;;
12519;SDS011;6325;49.540;8.364;2024-01-25T11:10:11;10.37;;;4.10;;
12519;SDS011;6325;49.540;8.364;2024-01-25T11:12:46;7.95;;;3.40;;
12519;SDS011;6325;49.540;8.364;2024-01-25T11:15:19;9.00;;;3.47;;
12519;SDS011;6325;49.540;8.364;2024-01-25T11:17:50;8.77;;;3.20;;
12519;SDS011;6325;49.540;8.364;2024-01-25T11:20:22;7.13;;;3.10;;
12519;SDS011;6325;49.540;8.364;2024-01-25T11:22:55;7.97;;;3.10;;
12519;SDS011;6325;49.540;8.364;2024-01-25T11:25:26;9.77;;;3.75;;
12519;SDS011;6325;49.540;8.364;2024-01-25T11:27:53;9.27;;;3.93;;
12519;SDS011;6325;49.540;8.364;2024-01-25T11:30:20;9.75;;;4.18;;
12519;SDS011;6325;49.540;8.364;2024-01-25T11:32:47;6.25;;;3.13;;
12519;SDS011;6325;49.540;8.364;2024-01-25T11:35:14;7.60;;;3.67;;
12519;SDS011;6325;49.540;8.364;2024-01-25T11:37:42;11.23;;;5.03;;
12519;SDS011;6325;49.540;8.364;2024-01-25T11:40:12;13.73;;;6.85;;
12519;SDS011;6325;49.540;8.364;2024-01-25T11:42:40;9.10;;;4.00;;
12519;SDS011;6325;49.540;8.364;2024-01-25T11:45:10;6.50;;;2.65;;
12519;SDS011;6325;49.540;8.364;2024-01-25T11:47:37;5.50;;;2.88;;
12519;SDS011;6325;49.540;8.364;2024-01-25T11:50:05;7.37;;;3.60;;
12519;SDS011;6325;49.540;8.364;2024-01-25T11:52:33;7.65;;;3.53;;
12519;SDS011;6325;49.540;8.364;2024-01-25T11:55:00;7.43;;;3.20;;
12519;SDS011;6325;49.540;8.364;2024-01-25T11:57:29;5.68;;;2.53;;
12519;SDS011;6325;49.540;8.364;2024-01-25T11:59:57;6.05;;;2.80;;
12519;SDS011;6325;49.540;8.364;2024-01-25T12:02:25;8.25;;;3.20;;
12519;SDS011;6325;49.540;8.364;2024-01-25T12:04:53;6.63;;;3.47;;
12519;SDS011;6325;49.540;8.364;2024-01-25T12:07:21;10.38;;;4.32;;
12519;SDS011;6325;49.540;8.364;2024-01-25T12:09:56;7.30;;;3.10;;
12519;SDS011;6325;49.540;8.364;2024-01-25T12:12:24;6.30;;;2.88;;
12519;SDS011;6325;49.540;8.364;2024-01-25T12:14:56;5.20;;;2.20;;
12519;SDS011;6325;49.540;8.364;2024-01-25T12:17:23;8.10;;;3.35;;
12519;SDS011;6325;49.540;8.364;2024-01-25T12:19:53;6.55;;;2.85;;
12519;SDS011;6325;49.540;8.364;2024-01-25T12:22:21;5.40;;;2.55;;
12519;SDS011;6325;49.540;8.364;2024-01-25T12:24:48;6.85;;;2.60;;
12519;SDS011;6325;49.540;8.364;2024-01-25T12:27:16;5.63;;;2.53;;
12519;SDS011;6325;49.540;8.364;2024-01-25T12:29:43;4.45;;;2.25;;
12519;SDS011;6325;49.540;8.364;2024-01-25T12:32:12;6.85;;;2.85;;
12519;SDS011;6325;49.540;8.364;2024-01-25T12:34:39;5.38;;;2.22;;
12519;SDS011;6325;49.540;8.364;2024-01-25T12:37:06;6.13;;;2.83;;
12519;SDS011;6325;49.540;8.364;2024-01-25T12:39:33;7.20;;;2.58;;
12519;SDS011;6325;49.540;8.364;2024-01-25T12:42:00;6.03;;;2.60;;
12519;SDS011;6325;49.540;8.364;2024-01-25T12:44:26;6.47;;;2.78;;
12519;SDS011;6325;49.540;8.364;2024-01-25T12:46:53;5.90;;;2.70;;
12519;SDS011;6325;49.540;8.364;2024-01-25T12:49:22;5.55;;;2.60;;
12519;SDS011;6325;49.540;8.364;2024-01-25T12:51:48;4.75;;;2.60;;
12519;SDS011;6325;49.540;8.364;2024-01-25T12:54:15;5.10;;;2.58;;
12519;SDS011;6325;49.540;8.364;2024-01-25T12:56:42;7.57;;;3.15;;
12519;SDS011;6325;49.540;8.364;2024-01-25T12:59:09;6.70;;;2.60;;
12519;SDS011;6325;49.540;8.364;2024-01-25T13:01:35;4.75;;;2.47;;
12519;SDS011;6325;49.540;8.364;2024-01-25T13:04:02;6.97;;;2.90;;
12519;SDS011;6325;49.540;8.364;2024-01-25T13:06:33;6.30;;;2.58;;
12519;SDS011;6325;49.540;8.364;2024-01-25T13:08:59;7.10;;;2.80;;
12519;SDS011;6325;49.540;8.364;2024-01-25T13:11:26;6.50;;;2.90;;
12519;SDS011;6325;49.540;8.364;2024-01-25T13:13:53;9.43;;;3.25;;
12519;SDS011;6325;49.540;8.364;2024-01-25T13:16:20;4.60;;;2.60;;
12519;SDS011;6325;49.540;8.364;2024-01-25T13:18:46;6.43;;;2.40;;
12519;SDS011;6325;49.540;8.364;2024-01-25T13:21:13;4.60;;;2.30;;
12519;SDS011;6325;49.540;8.364;2024-01-25T13:23:41;6.07;;;2.78;;
12519;SDS011;6325;49.540;8.364;2024-01-25T13:26:08;4.83;;;2.53;;
12519;SDS011;6325;49.540;8.364;2024-01-25T13:28:35;6.72;;;3.05;;
12519;SDS011;6325;49.540;8.364;2024-01-25T13:31:02;8.20;;;3.42;;
12519;SDS011;6325;49.540;8.364;2024-01-25T13:33:29;5.65;;;2.67;;
12519;SDS011;6325;49.540;8.364;2024-01-25T13:35:55;3.95;;;2.13;;
12519;SDS011;6325;49.540;8.364;2024-01-25T13:38:22;7.30;;;3.00;;
12519;SDS011;6325;49.540;8.364;2024-01-25T13:40:51;6.30;;;2.60;;
12519;SDS011;6325;49.540;8.364;2024-01-25T13:43:17;6.60;;;2.97;;
12519;SDS011;6325;49.540;8.364;2024-01-25T13:45:44;6.10;;;2.93;;
12519;SDS011;6325;49.540;8.364;2024-01-25T13:48:11;4.40;;;2.60;;
12519;SDS011;6325;49.540;8.364;2024-01-25T13:50:38;6.45;;;3.10;;
12519;SDS011;6325;49.540;8.364;2024-01-25T13:53:05;7.40;;;3.00;;
12519;SDS011;6325;49.540;8.364;2024-01-25T13:55:32;5.45;;;2.75;;
12519;SDS011;6325;49.540;8.364;2024-01-25T13:58:00;5.57;;;2.60;;
12519;SDS011;6325;49.540;8.364;2024-01-25T14:00:27;7.00;;;2.70;;
12519;SDS011;6325;49.540;8.364;2024-01-25T14:02:54;5.00;;;2.50;;
12519;SDS011;6325;49.540;8.364;2024-01-25T14:05:21;6.13;;;2.63;;
12519;SDS011;6325;49.540;8.364;2024-01-25T14:07:49;5.80;;;2.70;;
12519;SDS011;6325;49.540;8.364;2024-01-25T14:10:16;5.53;;;2.50;;
12519;SDS011;6325;49.540;8.364;2024-01-25T14:12:45;4.80;;;2.42;;
12519;SDS011;6325;49.540;8.364;2024-01-25T14:15:13;4.70;;;2.30;;
12519;SDS011;6325;49.540;8.364;2024-01-25T14:17:40;4.95;;;2.55;;
12519;SDS011;6325;49.540;8.364;2024-01-25T14:20:07;6.60;;;2.75;;
12519;SDS011;6325;49.540;8.364;2024-01-25T14:22:35;6.32;;;2.40;;
12519;SDS011;6325;49.540;8.364;2024-01-25T14:25:01;4.55;;;2.45;;
12519;SDS011;6325;49.540;8.364;2024-01-25T14:27:28;7.80;;;2.90;;
12519;SDS011;6325;49.540;8.364;2024-01-25T14:29:55;5.20;;;2.63;;
12519;SDS011;6325;49.540;8.364;2024-01-25T14:32:23;4.78;;;2.25;;
12519;SDS011;6325;49.540;8.364;2024-01-25T14:34:50;7.70;;;2.93;;
12519;SDS011;6325;49.540;8.364;2024-01-25T14:37:17;7.25;;;2.85;;
12519;SDS011;6325;49.540;8.364;2024-01-25T14:39:44;5.53;;;2.40;;
12519;SDS011;6325;49.540;8.364;2024-01-25T14:42:12;5.75;;;2.80;;
12519;SDS011;6325;49.540;8.364;2024-01-25T14:44:39;7.30;;;2.80;;
12519;SDS011;6325;49.540;8.364;2024-01-25T14:47:09;4.05;;;2.13;;
12519;SDS011;6325;49.540;8.364;2024-01-25T14:49:38;5.93;;;2.58;;
12519;SDS011;6325;49.540;8.364;2024-01-25T14:52:05;7.22;;;3.10;;
12519;SDS011;6325;49.540;8.364;2024-01-25T14:54:33;5.50;;;2.67;;
12519;SDS011;6325;49.540;8.364;2024-01-25T14:57:00;6.22;;;2.60;;
12519;SDS011;6325;49.540;8.364;2024-01-25T14:59:27;6.32;;;2.83;;
12519;SDS011;6325;49.540;8.364;2024-01-25T15:01:54;6.30;;;2.90;;
12519;SDS011;6325;49.540;8.364;2024-01-25T15:04:21;7.13;;;3.10;;
12519;SDS011;6325;49.540;8.364;2024-01-25T15:09:24;5.40;;;2.67;;
12519;SDS011;6325;49.540;8.364;2024-01-25T15:11:51;5.63;;;2.80;;
12519;SDS011;6325;49.540;8.364;2024-01-25T15:14:17;7.43;;;2.97;;
12519;SDS011;6325;49.540;8.364;2024-01-25T15:16:44;4.45;;;2.40;;
12519;SDS011;6325;49.540;8.364;2024-01-25T15:19:11;4.32;;;2.20;;
12519;SDS011;6325;49.540;8.364;2024-01-25T15:21:38;5.85;;;2.70;;